createdAt,value
2018-10-01T00:01:55.094Z,99.50
2018-10-01T00:04:24.762Z,99.90
2018-10-01T00:06:54.522Z,99.90
2018-10-01T00:09:24.243Z,99.90
2018-10-01T00:11:57.933Z,99.50
2018-10-01T00:14:27.594Z,99.10
2018-10-01T00:16:57.278Z,99.10
2018-10-01T00:19:32.094Z,99.90
2018-10-01T00:22:07.012Z,99.90
2018-10-01T00:24:36.657Z,99.90
2018-10-01T00:27:06.646Z,99.90
2018-10-01T00:29:36.545Z,99.90
2018-10-01T00:32:06.308Z,99.90
2018-10-01T00:34:36.091Z,99.90
2018-10-01T00:37:06.177Z,99.90
2018-10-01T00:39:35.916Z,99.90
2018-10-01T00:42:05.602Z,99.90
2018-10-01T00:44:35.298Z,99.90
2018-10-01T00:47:04.976Z,99.90
2018-10-01T00:49:34.647Z,99.90
2018-10-01T00:52:04.385Z,99.90
2018-10-01T00:54:34.151Z,99.90
2018-10-01T00:57:05.911Z,99.90
2018-10-01T00:59:35.562Z,99.90
2018-10-01T01:02:05.326Z,99.90
2018-10-01T01:04:35.067Z,99.90
2018-10-01T01:07:04.759Z,99.90
2018-10-01T01:09:34.427Z,99.90
2018-10-01T01:12:04.278Z,99.90
2018-10-01T01:14:34.076Z,99.90
2018-10-01T01:17:03.900Z,99.90
2018-10-01T01:19:33.573Z,99.90
2018-10-01T01:22:03.548Z,99.90
2018-10-01T01:24:33.247Z,99.90
2018-10-01T01:27:08.336Z,99.90
2018-10-01T01:29:38.090Z,99.90
2018-10-01T01:32:07.842Z,99.90
2018-10-01T01:34:37.571Z,99.90
2018-10-01T01:37:07.292Z,99.90
2018-10-01T01:39:37.076Z,99.90
2018-10-01T01:42:06.832Z,99.90
2018-10-01T01:44:36.550Z,99.90
2018-10-01T01:47:10.707Z,99.90
2018-10-01T01:49:44.607Z,99.90
2018-10-01T01:52:15.071Z,99.90
2018-10-01T01:54:44.700Z,99.90
2018-10-01T01:57:14.478Z,99.90
2018-10-01T01:59:46.079Z,99.90
2018-10-01T02:02:15.768Z,99.90
2018-10-01T02:04:45.368Z,99.90
2018-10-01T02:07:14.999Z,99.90
2018-10-01T02:09:44.709Z,99.90
2018-10-01T02:12:14.333Z,99.90
2018-10-01T02:14:44.060Z,99.90
2018-10-01T02:17:13.812Z,99.90
2018-10-01T02:19:43.515Z,99.90
2018-10-01T02:22:13.152Z,99.90
2018-10-01T02:24:42.839Z,99.90
2018-10-01T02:27:12.575Z,99.90
2018-10-01T02:29:42.258Z,99.90
2018-10-01T02:32:11.942Z,99.90
2018-10-01T02:34:41.604Z,99.90
2018-10-01T02:37:11.335Z,99.90
2018-10-01T02:39:41.011Z,99.90
2018-10-01T02:42:10.659Z,99.90
2018-10-01T02:44:42.382Z,99.90
2018-10-01T02:47:12.166Z,99.90
2018-10-01T02:49:41.860Z,99.90
2018-10-01T02:52:16.689Z,99.90
2018-10-01T02:54:46.432Z,99.90
2018-10-01T02:57:16.187Z,99.90
2018-10-01T02:59:45.948Z,99.90
2018-10-01T03:02:15.684Z,99.90
2018-10-01T03:04:45.391Z,99.90
2018-10-01T03:07:15.012Z,99.90
2018-10-01T03:09:44.829Z,99.90
2018-10-01T03:12:14.543Z,99.90
2018-10-01T03:14:44.262Z,99.90
2018-10-01T03:17:13.954Z,99.90
2018-10-01T03:19:43.615Z,99.90
2018-10-01T03:22:13.259Z,99.90
2018-10-01T03:24:42.876Z,99.90
2018-10-01T03:27:12.570Z,99.90
2018-10-01T03:29:42.346Z,99.90
2018-10-01T03:32:12.132Z,99.90
2018-10-01T03:34:41.969Z,99.90
2018-10-01T03:37:11.699Z,99.90
2018-10-01T03:39:41.459Z,99.90
2018-10-01T03:42:11.086Z,99.90
2018-10-01T03:44:40.848Z,99.90
2018-10-01T03:47:10.559Z,99.90
2018-10-01T03:49:40.287Z,99.90
2018-10-01T03:52:09.978Z,99.90
2018-10-01T03:54:39.771Z,99.90
2018-10-01T03:57:10.277Z,99.90
2018-10-01T03:59:40.034Z,99.90
2018-10-01T04:02:09.785Z,99.90
2018-10-01T04:04:39.459Z,99.90
2018-10-01T04:07:09.248Z,99.90
2018-10-01T04:09:38.918Z,99.90
2018-10-01T04:12:08.651Z,99.90
2018-10-01T04:14:38.450Z,99.90
2018-10-01T04:17:08.275Z,99.90
2018-10-01T04:19:37.967Z,99.90
2018-10-01T04:22:07.733Z,99.90
2018-10-01T04:24:37.434Z,99.90
2018-10-01T04:27:07.264Z,99.90
2018-10-01T04:29:39.067Z,99.90
2018-10-01T04:32:08.921Z,99.90
2018-10-01T04:37:13.415Z,99.90
2018-10-01T04:39:43.094Z,99.90
2018-10-01T04:42:13.072Z,99.90
2018-10-01T04:44:42.861Z,99.90
2018-10-01T04:47:12.589Z,99.90
2018-10-01T04:49:42.264Z,99.90
2018-10-01T04:52:11.902Z,99.90
2018-10-01T04:54:41.579Z,99.90
2018-10-01T04:57:11.334Z,99.90
2018-10-01T04:59:41.039Z,99.90
2018-10-01T05:02:10.791Z,99.90
2018-10-01T05:04:40.559Z,99.90
2018-10-01T05:07:10.302Z,99.90
2018-10-01T05:09:39.979Z,99.90
2018-10-01T05:12:09.677Z,99.90
2018-10-01T05:14:39.497Z,99.90
2018-10-01T05:17:09.189Z,99.90
2018-10-01T05:19:38.934Z,99.90
2018-10-01T05:22:08.775Z,99.90
2018-10-01T05:24:38.441Z,99.90
2018-10-01T05:27:08.180Z,99.90
2018-10-01T05:29:38.088Z,99.90
2018-10-01T05:32:07.901Z,99.90
2018-10-01T05:34:37.575Z,99.90
2018-10-01T05:37:07.361Z,99.90
2018-10-01T05:39:37.584Z,99.90
2018-10-01T05:42:07.555Z,99.90
2018-10-01T05:44:37.251Z,99.90
2018-10-01T05:47:06.992Z,99.90
2018-10-01T05:49:36.737Z,99.90
2018-10-01T05:52:07.293Z,99.90
2018-10-01T05:54:37.051Z,99.90
2018-10-01T05:57:06.920Z,99.90
2018-10-01T05:59:36.867Z,99.90
2018-10-01T06:02:06.769Z,99.90
2018-10-01T06:04:36.960Z,99.90
2018-10-01T06:07:07.233Z,99.90
2018-10-01T06:09:37.075Z,99.90
2018-10-01T06:12:07.184Z,99.90
2018-10-01T06:14:37.084Z,99.90
2018-10-01T06:17:06.800Z,99.90
2018-10-01T06:19:36.635Z,99.90
2018-10-01T06:22:06.540Z,99.90
2018-10-01T06:24:36.459Z,99.90
2018-10-01T06:27:06.794Z,99.90
2018-10-01T06:29:36.551Z,99.90
2018-10-01T06:32:06.693Z,99.90
2018-10-01T06:34:36.369Z,99.90
2018-10-01T06:37:06.135Z,99.90
2018-10-01T06:39:35.877Z,99.90
2018-10-01T06:42:05.720Z,99.90
2018-10-01T06:44:35.497Z,99.90
2018-10-01T06:47:05.189Z,99.90
2018-10-01T06:49:35.267Z,99.90
2018-10-01T06:52:05.090Z,99.90
2018-10-01T06:54:35.275Z,99.90
2018-10-01T06:57:05.152Z,99.90
2018-10-01T06:59:36.300Z,99.90
2018-10-01T07:02:05.983Z,99.90
2018-10-01T07:04:35.742Z,99.90
2018-10-01T07:07:05.545Z,99.90
2018-10-01T07:09:35.377Z,99.90
2018-10-01T07:12:05.088Z,99.90
2018-10-01T07:14:34.843Z,99.90
2018-10-01T07:17:04.676Z,99.90
2018-10-01T07:19:34.354Z,99.90
2018-10-01T07:22:04.061Z,99.90
2018-10-01T07:24:33.727Z,99.90
2018-10-01T07:27:03.473Z,99.90
2018-10-01T07:29:33.398Z,99.90
2018-10-01T07:32:03.233Z,99.90
2018-10-01T07:34:33.032Z,99.90
2018-10-01T07:37:02.766Z,99.90
2018-10-01T07:39:32.463Z,99.90
2018-10-01T07:42:02.196Z,99.90
2018-10-01T07:44:32.191Z,99.90
2018-10-01T07:47:02.090Z,99.90
2018-10-01T07:49:31.812Z,99.90
2018-10-01T07:52:01.637Z,99.90
2018-10-01T07:54:31.622Z,99.90
2018-10-01T07:57:01.625Z,99.90
2018-10-01T07:59:31.498Z,99.90
2018-10-01T08:02:01.523Z,99.90
2018-10-01T08:04:31.616Z,99.90
2018-10-01T08:07:01.968Z,99.90
2018-10-01T08:09:31.885Z,99.90
2018-10-01T08:12:01.742Z,99.90
2018-10-01T08:14:31.752Z,99.90
2018-10-01T08:17:01.716Z,99.90
2018-10-01T08:19:31.749Z,99.90
2018-10-01T08:22:01.831Z,99.90
2018-10-01T08:24:31.658Z,99.90
2018-10-01T08:27:01.394Z,99.90
2018-10-01T08:29:31.195Z,99.90
2018-10-01T08:32:01.084Z,99.40
2018-10-01T08:34:30.844Z,99.50
2018-10-01T08:37:01.279Z,99.00
2018-10-01T08:39:31.165Z,99.00
2018-10-01T08:42:01.022Z,99.30
2018-10-01T08:44:30.767Z,98.60
2018-10-01T08:47:00.501Z,98.90
2018-10-01T08:50:39.064Z,98.40
2018-10-01T08:53:27.660Z,98.30
2018-10-01T08:55:57.444Z,98.20
2018-10-01T08:58:27.291Z,98.30
2018-10-01T09:00:57.085Z,98.00
2018-10-01T09:03:26.769Z,97.60
2018-10-01T09:05:56.624Z,97.90
2018-10-01T09:08:27.395Z,97.40
2018-10-01T09:10:57.152Z,97.30
2018-10-01T09:13:34.041Z,97.60
2018-10-01T09:16:03.862Z,97.30
2018-10-01T09:18:33.498Z,96.60
2018-10-01T09:21:03.138Z,96.50
2018-10-01T09:23:33.060Z,96.70
2018-10-01T09:26:02.863Z,96.30
2018-10-01T09:28:51.611Z,96.00
2018-10-01T09:31:21.521Z,96.20
2018-10-01T09:33:51.353Z,96.40
2018-10-01T09:36:20.999Z,96.30
2018-10-01T09:38:50.651Z,96.60
2018-10-01T09:41:20.414Z,96.00
2018-10-01T09:43:50.146Z,95.90
2018-10-01T09:46:20.311Z,95.70
2018-10-01T09:48:49.990Z,95.30
2018-10-01T09:51:19.633Z,94.80
2018-10-01T09:53:49.343Z,94.50
2018-10-01T09:56:18.978Z,94.60
2018-10-01T09:58:48.683Z,94.10
2018-10-01T10:01:18.461Z,94.30
2018-10-01T10:03:48.400Z,94.00
2018-10-01T10:06:18.196Z,93.70
2018-10-01T10:08:47.935Z,93.80
2018-10-01T10:11:17.623Z,93.50
2018-10-01T10:13:48.375Z,93.30
2018-10-01T10:16:18.185Z,93.20
2018-10-01T10:18:47.659Z,93.80
2018-10-01T10:21:17.327Z,93.30
2018-10-01T10:23:47.036Z,93.80
2018-10-01T10:26:16.844Z,94.50
2018-10-01T10:28:46.446Z,94.80
2018-10-01T10:31:16.105Z,95.00
2018-10-01T10:33:55.472Z,95.10
2018-10-01T10:36:25.289Z,95.00
2018-10-01T10:38:55.059Z,94.80
2018-10-01T10:41:35.202Z,94.70
2018-10-01T10:44:14.884Z,94.60
2018-10-01T10:46:44.706Z,94.00
2018-10-01T10:49:14.464Z,93.90
2018-10-01T10:51:44.299Z,93.50
2018-10-01T10:54:14.200Z,93.10
2018-10-01T10:56:44.005Z,92.70
2018-10-01T10:59:13.776Z,92.60
2018-10-01T11:01:43.511Z,91.60
2018-10-01T11:04:13.374Z,92.40
2018-10-01T11:06:43.108Z,92.20
2018-10-01T11:09:13.073Z,92.50
2018-10-01T11:11:42.855Z,92.20
2018-10-01T11:14:12.770Z,92.30
2018-10-01T11:16:42.477Z,91.90
2018-10-01T11:19:12.351Z,92.10
2018-10-01T11:21:42.092Z,92.80
2018-10-01T11:24:11.727Z,92.10
2018-10-01T11:26:41.483Z,91.30
2018-10-01T11:29:11.423Z,93.00
2018-10-01T11:31:41.154Z,95.00
2018-10-01T11:34:10.878Z,97.20
2018-10-01T11:36:40.903Z,99.30
2018-10-01T11:39:12.782Z,99.90
2018-10-01T11:41:42.571Z,99.90
2018-10-01T11:44:12.350Z,99.90
2018-10-01T11:46:42.179Z,99.90
2018-10-01T11:49:12.075Z,99.90
2018-10-01T11:51:42.016Z,99.90
2018-10-01T11:54:11.666Z,99.90
2018-10-01T11:56:41.463Z,99.90
2018-10-01T11:59:11.224Z,99.90
2018-10-01T12:01:41.053Z,99.90
2018-10-01T12:04:10.871Z,99.90
2018-10-01T12:06:40.708Z,99.90
2018-10-01T12:09:12.203Z,99.90
2018-10-01T12:11:42.008Z,99.90
2018-10-01T12:14:12.196Z,99.90
2018-10-01T12:16:42.208Z,99.90
2018-10-01T12:19:12.183Z,99.90
2018-10-01T12:21:42.203Z,99.90
2018-10-01T12:24:11.915Z,99.90
2018-10-01T12:26:41.758Z,99.90
2018-10-01T12:29:11.762Z,99.90
2018-10-01T12:31:41.811Z,99.90
2018-10-01T12:34:11.618Z,99.90
2018-10-01T12:36:41.423Z,99.90
2018-10-01T12:39:11.425Z,99.90
2018-10-01T12:41:41.234Z,99.90
2018-10-01T12:44:11.456Z,99.90
2018-10-01T12:46:41.367Z,99.90
2018-10-01T12:49:11.180Z,99.90
2018-10-01T12:51:41.019Z,99.90
2018-10-01T12:54:10.811Z,99.90
2018-10-01T12:56:40.705Z,99.90
2018-10-01T12:59:10.540Z,99.90
2018-10-01T13:01:40.280Z,99.90
2018-10-01T13:04:10.008Z,99.90
2018-10-01T13:06:39.977Z,99.90
2018-10-01T13:09:12.138Z,99.90
2018-10-01T13:11:42.172Z,99.90
2018-10-01T13:14:11.862Z,99.90
2018-10-01T13:16:41.680Z,99.90
2018-10-01T13:19:11.467Z,99.50
2018-10-01T13:21:41.247Z,99.10
2018-10-01T13:24:11.058Z,98.90
2018-10-01T13:26:40.855Z,99.30
2018-10-01T13:29:10.601Z,98.80
2018-10-01T13:31:40.271Z,99.10
2018-10-01T13:34:10.091Z,99.90
2018-10-01T13:36:39.962Z,97.30
2018-10-01T13:39:11.649Z,96.30
2018-10-01T13:41:41.889Z,94.90
2018-10-01T13:44:11.684Z,97.90
2018-10-01T13:46:41.552Z,98.90
2018-10-01T13:49:11.447Z,98.90
2018-10-01T13:51:41.252Z,98.70
2018-10-01T13:54:11.167Z,99.80
2018-10-01T13:56:40.919Z,99.30
2018-10-01T13:59:10.660Z,99.40
2018-10-01T14:01:40.478Z,99.90
2018-10-01T14:04:10.239Z,99.90
2018-10-01T14:06:40.026Z,99.90
2018-10-01T14:09:11.920Z,99.90
2018-10-01T14:11:41.714Z,99.90
2018-10-01T14:14:11.486Z,99.90
2018-10-01T14:16:41.380Z,99.90
2018-10-01T14:19:11.158Z,99.90
2018-10-01T14:21:40.978Z,99.90
2018-10-01T14:24:10.843Z,99.90
2018-10-01T14:26:40.643Z,99.90
2018-10-01T14:29:10.572Z,99.90
2018-10-01T14:31:40.657Z,99.90
2018-10-01T14:34:10.508Z,99.90
2018-10-01T14:36:40.359Z,99.90
2018-10-01T14:39:10.783Z,99.90
2018-10-01T14:41:40.590Z,99.90
2018-10-01T14:44:10.349Z,99.90
2018-10-01T14:46:40.307Z,98.60
2018-10-01T14:49:10.692Z,99.90
2018-10-01T14:51:53.008Z,98.00
2018-10-01T14:54:22.787Z,99.30
2018-10-01T14:56:52.615Z,97.80
2018-10-01T14:59:22.483Z,97.20
2018-10-01T15:01:52.491Z,95.90
2018-10-01T15:04:22.752Z,96.20
2018-10-01T15:06:52.488Z,97.10
2018-10-01T15:09:22.493Z,96.70
2018-10-01T15:11:52.903Z,97.00
2018-10-01T15:14:22.700Z,96.90
2018-10-01T15:16:52.936Z,97.00
2018-10-01T15:19:22.812Z,97.10
2018-10-01T15:21:53.262Z,97.20
2018-10-01T15:24:24.533Z,97.40
2018-10-01T15:26:54.434Z,97.50
2018-10-01T15:29:24.318Z,98.30
2018-10-01T15:31:54.068Z,97.00
2018-10-01T15:34:24.292Z,97.40
2018-10-01T15:36:54.084Z,96.80
2018-10-01T15:39:23.970Z,96.20
2018-10-01T15:41:54.303Z,96.30
2018-10-01T15:44:24.446Z,97.40
2018-10-01T15:46:54.343Z,95.60
2018-10-01T15:49:24.253Z,96.10
2018-10-01T15:51:54.269Z,96.90
2018-10-01T15:54:24.503Z,96.80
2018-10-01T15:56:54.205Z,97.10
2018-10-01T15:59:23.965Z,96.90
2018-10-01T16:01:53.826Z,97.70
2018-10-01T16:04:23.885Z,97.60
2018-10-01T16:06:53.719Z,97.70
2018-10-01T16:09:24.326Z,97.30
2018-10-01T16:11:54.245Z,97.60
2018-10-01T16:14:24.002Z,97.20
2018-10-01T16:16:53.972Z,96.80
2018-10-01T16:19:23.875Z,96.70
2018-10-01T16:21:54.026Z,96.90
2018-10-01T16:24:23.975Z,96.90
2018-10-01T16:26:53.712Z,97.20
2018-10-01T16:29:23.465Z,97.50
2018-10-01T16:31:53.262Z,97.70
2018-10-01T16:34:23.190Z,98.00
2018-10-01T16:36:53.304Z,98.00
2018-10-01T16:39:23.134Z,98.20
2018-10-01T16:41:53.087Z,98.20
2018-10-01T16:44:22.994Z,98.80
2018-10-01T16:46:52.702Z,98.70
2018-10-01T16:49:22.502Z,98.70
2018-10-01T16:51:52.270Z,99.10
2018-10-01T16:54:22.195Z,99.40
2018-10-01T16:56:51.934Z,98.80
2018-10-01T16:59:21.662Z,99.40
2018-10-01T17:01:51.724Z,99.40
2018-10-01T17:04:21.985Z,99.90
2018-10-01T17:06:51.887Z,99.30
2018-10-01T17:09:21.609Z,98.80
2018-10-01T17:11:51.391Z,99.30
2018-10-01T17:14:21.099Z,98.90
2018-10-01T17:16:50.903Z,99.00
2018-10-01T17:19:21.796Z,99.70
2018-10-01T17:21:51.659Z,99.80
2018-10-01T17:24:21.372Z,99.40
2018-10-01T17:26:51.159Z,99.80
2018-10-01T17:29:20.922Z,99.90
2018-10-01T17:31:50.629Z,99.90
2018-10-01T17:34:20.602Z,99.90
2018-10-01T17:36:50.365Z,99.90
2018-10-01T17:39:20.220Z,99.90
2018-10-01T17:41:49.963Z,99.80
2018-10-01T17:44:19.710Z,99.90
2018-10-01T17:46:49.362Z,99.90
2018-10-01T17:49:19.443Z,99.90
2018-10-01T17:51:49.258Z,99.90
2018-10-01T17:54:19.196Z,99.90
2018-10-01T17:56:48.930Z,99.80
2018-10-01T17:59:18.996Z,99.40
2018-10-01T18:01:48.806Z,99.90
2018-10-01T18:04:18.622Z,99.50
2018-10-01T18:06:49.324Z,99.90
2018-10-01T18:09:19.117Z,99.80
2018-10-01T18:11:48.876Z,99.70
2018-10-01T18:14:18.674Z,99.70
2018-10-01T18:16:48.380Z,99.90
2018-10-01T18:19:18.220Z,99.90
2018-10-01T18:21:48.071Z,99.60
2018-10-01T18:24:17.938Z,99.90
2018-10-01T18:26:47.833Z,99.80
2018-10-01T18:29:17.776Z,99.90
2018-10-01T18:31:47.590Z,99.70
2018-10-01T18:34:17.415Z,99.20
2018-10-01T18:36:47.377Z,99.00
2018-10-01T18:39:21.010Z,99.30
2018-10-01T18:41:50.776Z,99.40
2018-10-01T18:44:22.328Z,99.20
2018-10-01T18:46:52.081Z,99.30
2018-10-01T18:49:22.302Z,99.30
2018-10-01T18:51:52.163Z,99.00
2018-10-01T18:54:22.216Z,99.90
2018-10-01T18:56:52.062Z,99.90
2018-10-01T18:59:21.862Z,99.90
2018-10-01T19:01:51.758Z,99.90
2018-10-01T19:04:21.587Z,99.90
2018-10-01T19:06:51.433Z,99.90
2018-10-01T19:09:21.270Z,99.90
2018-10-01T19:11:51.332Z,99.90
2018-10-01T19:14:21.056Z,99.90
2018-10-01T19:16:50.859Z,99.90
2018-10-01T19:19:20.656Z,99.90
2018-10-01T19:21:50.490Z,99.90
2018-10-01T19:24:20.337Z,99.90
2018-10-01T19:26:50.376Z,99.90
2018-10-01T19:29:20.336Z,99.90
2018-10-01T19:31:50.131Z,99.90
2018-10-01T19:34:20.130Z,99.90
2018-10-01T19:36:49.916Z,99.90
2018-10-01T19:39:21.185Z,99.90
2018-10-01T19:41:51.384Z,99.90
2018-10-01T19:44:21.775Z,99.90
2018-10-01T19:46:51.782Z,99.90
2018-10-01T19:49:23.978Z,99.90
2018-10-01T19:51:53.853Z,99.90
2018-10-01T19:54:23.833Z,99.90
2018-10-01T19:56:54.773Z,99.90
2018-10-01T19:59:24.498Z,99.90
2018-10-01T20:01:54.187Z,99.90
2018-10-01T20:04:24.271Z,99.90
2018-10-01T20:06:53.987Z,99.90
2018-10-01T20:09:23.791Z,99.90
2018-10-01T20:11:53.448Z,99.90
2018-10-01T20:14:23.258Z,99.90
2018-10-01T20:16:53.437Z,99.90
2018-10-01T20:19:23.203Z,99.90
2018-10-01T20:21:53.209Z,99.90
2018-10-01T20:24:22.933Z,99.90
2018-10-01T20:26:52.895Z,99.90
2018-10-01T20:29:22.982Z,99.90
2018-10-01T20:31:52.421Z,99.90
2018-10-01T20:34:22.206Z,99.90
2018-10-01T20:36:51.959Z,99.90
2018-10-01T20:39:21.831Z,99.90
2018-10-01T20:41:51.686Z,99.90
2018-10-01T20:44:21.552Z,99.90
2018-10-01T20:46:51.534Z,99.90
2018-10-01T20:49:21.335Z,99.90
2018-10-01T20:51:51.088Z,99.90
2018-10-01T20:54:20.874Z,99.90
2018-10-01T20:56:50.589Z,99.90
2018-10-01T20:59:20.608Z,99.90
2018-10-01T21:01:50.479Z,99.90
2018-10-01T21:04:20.400Z,99.90
2018-10-01T21:06:50.260Z,99.90
2018-10-01T21:09:20.576Z,99.90
2018-10-01T21:11:50.612Z,99.90
2018-10-01T21:14:20.736Z,99.90
2018-10-01T21:16:50.808Z,99.90
2018-10-01T21:19:20.860Z,99.90
2018-10-01T21:21:50.831Z,99.90
2018-10-01T21:24:20.815Z,99.90
2018-10-01T21:26:50.665Z,99.90
2018-10-01T21:29:20.556Z,99.90
2018-10-01T21:31:50.378Z,99.90
2018-10-01T21:34:23.184Z,99.90
2018-10-01T21:36:52.883Z,99.90
2018-10-01T21:39:51.680Z,99.90
2018-10-01T21:42:21.556Z,99.90
2018-10-01T21:44:51.367Z,99.90
2018-10-01T21:47:21.666Z,99.90
2018-10-01T21:49:51.497Z,99.90
2018-10-01T21:52:21.219Z,99.90
2018-10-01T21:54:50.963Z,99.90
2018-10-01T21:57:20.908Z,99.90
2018-10-01T21:59:51.077Z,99.90
2018-10-01T22:02:21.166Z,99.90
2018-10-01T22:04:50.983Z,99.90
2018-10-01T22:07:20.806Z,99.90
2018-10-01T22:09:50.746Z,99.90
2018-10-01T22:12:21.005Z,99.90
2018-10-01T22:14:51.297Z,99.90
2018-10-01T22:17:21.020Z,99.90
2018-10-01T22:19:50.788Z,99.90
2018-10-01T22:22:20.599Z,99.90
2018-10-01T22:24:50.335Z,99.90
2018-10-01T22:27:23.386Z,99.90
2018-10-01T22:29:53.147Z,99.90
2018-10-01T22:32:22.861Z,99.90
2018-10-01T22:34:52.640Z,99.90
2018-10-01T22:37:22.475Z,99.90
2018-10-01T22:39:52.365Z,99.90
2018-10-01T22:42:22.062Z,99.90
2018-10-01T22:44:51.961Z,99.90
2018-10-01T22:47:21.647Z,99.90
2018-10-01T22:49:51.347Z,99.90
2018-10-01T22:52:21.349Z,99.90
2018-10-01T22:54:51.058Z,99.90
2018-10-01T22:57:20.772Z,99.90
2018-10-01T22:59:50.630Z,99.90
2018-10-01T23:02:20.430Z,99.90
2018-10-01T23:04:50.271Z,99.90
2018-10-01T23:07:20.008Z,99.90
2018-10-01T23:09:49.670Z,99.90
2018-10-01T23:12:19.424Z,99.90
2018-10-01T23:14:49.142Z,99.90
2018-10-01T23:17:18.854Z,99.90
2018-10-01T23:19:48.636Z,99.90
2018-10-01T23:22:18.454Z,99.90
2018-10-01T23:24:48.310Z,99.90
2018-10-01T23:27:18.302Z,99.90
2018-10-01T23:29:48.270Z,99.90
2018-10-01T23:32:18.105Z,99.90
2018-10-01T23:34:48.007Z,99.90
2018-10-01T23:37:17.730Z,99.90
2018-10-01T23:39:47.483Z,99.90
2018-10-01T23:42:17.150Z,99.90
2018-10-01T23:44:47.083Z,99.90
2018-10-01T23:47:16.811Z,99.90
2018-10-01T23:49:46.642Z,99.90
2018-10-01T23:52:16.350Z,99.90
2018-10-01T23:54:46.067Z,99.90
2018-10-01T23:57:16.034Z,99.90
2018-10-01T23:59:46.142Z,99.90
